sensor_id;sensor_type;location;lat;lon;timestamp;P1;durP1;ratioP1;P2;durP2;ratioP2
53411;SDS011;39307;52.870;13.660;2022-08-19T00:01:29;9.45;;;7.43;;
53411;SDS011;39307;52.870;13.660;2022-08-19T00:04:00;9.80;;;7.90;;
53411;SDS011;39307;52.870;13.660;2022-08-19T00:06:28;10.77;;;7.93;;
53411;SDS011;39307;52.870;13.660;2022-08-19T00:08:56;9.82;;;7.85;;
53411;SDS011;39307;52.870;13.660;2022-08-19T00:11:24;9.33;;;8.07;;
53411;SDS011;39307;52.870;13.660;2022-08-19T00:13:50;11.20;;;8.13;;
53411;SDS011;39307;52.870;13.660;2022-08-19T00:16:17;8.93;;;8.00;;
53411;SDS011;39307;52.870;13.660;2022-08-19T00:18:43;9.85;;;8.43;;
53411;SDS011;39307;52.870;13.660;2022-08-19T00:21:09;9.85;;;8.50;;
53411;SDS011;39307;52.870;13.660;2022-08-19T00:23:36;9.13;;;8.07;;
53411;SDS011;39307;52.870;13.660;2022-08-19T00:26:03;10.60;;;8.07;;
53411;SDS011;39307;52.870;13.660;2022-08-19T00:28:30;9.27;;;8.00;;
53411;SDS011;39307;52.870;13.660;2022-08-19T00:30:57;9.40;;;8.30;;
53411;SDS011;39307;52.870;13.660;2022-08-19T00:33:23;10.63;;;8.13;;
53411;SDS011;39307;52.870;13.660;2022-08-19T00:35:49;9.68;;;8.65;;
53411;SDS011;39307;52.870;13.660;2022-08-19T00:38:16;9.48;;;7.90;;
53411;SDS011;39307;52.870;13.660;2022-08-19T00:40:43;9.40;;;8.40;;
53411;SDS011;39307;52.870;13.660;2022-08-19T00:43:10;10.18;;;8.40;;
53411;SDS011;39307;52.870;13.660;2022-08-19T00:45:37;10.20;;;9.05;;
53411;SDS011;39307;52.870;13.660;2022-08-19T00:48:03;11.23;;;8.30;;
53411;SDS011;39307;52.870;13.660;2022-08-19T00:50:30;10.37;;;8.30;;
53411;SDS011;39307;52.870;13.660;2022-08-19T00:52:56;9.80;;;8.20;;
53411;SDS011;39307;52.870;13.660;2022-08-19T00:55:24;9.00;;;7.90;;
53411;SDS011;39307;52.870;13.660;2022-08-19T00:57:55;9.82;;;8.00;;
53411;SDS011;39307;52.870;13.660;2022-08-19T01:00:26;9.80;;;7.78;;
53411;SDS011;39307;52.870;13.660;2022-08-19T01:02:55;10.23;;;8.07;;
53411;SDS011;39307;52.870;13.660;2022-08-19T01:05:23;9.95;;;8.23;;
53411;SDS011;39307;52.870;13.660;2022-08-19T01:07:54;10.60;;;8.35;;
53411;SDS011;39307;52.870;13.660;2022-08-19T01:10:25;10.10;;;8.13;;
53411;SDS011;39307;52.870;13.660;2022-08-19T01:12:53;9.68;;;8.02;;
53411;SDS011;39307;52.870;13.660;2022-08-19T01:15:22;8.82;;;7.93;;
53411;SDS011;39307;52.870;13.660;2022-08-19T01:17:54;10.47;;;7.90;;
53411;SDS011;39307;52.870;13.660;2022-08-19T01:20:22;10.48;;;7.88;;
53411;SDS011;39307;52.870;13.660;2022-08-19T01:22:53;8.43;;;7.53;;
53411;SDS011;39307;52.870;13.660;2022-08-19T01:25:24;8.77;;;7.40;;
53411;SDS011;39307;52.870;13.660;2022-08-19T01:28:02;10.07;;;7.70;;
53411;SDS011;39307;52.870;13.660;2022-08-19T01:30:30;9.80;;;8.07;;
53411;SDS011;39307;52.870;13.660;2022-08-19T01:33:00;8.45;;;7.25;;
53411;SDS011;39307;52.870;13.660;2022-08-19T01:35:28;9.35;;;7.25;;
53411;SDS011;39307;52.870;13.660;2022-08-19T01:38:00;8.93;;;7.15;;
53411;SDS011;39307;52.870;13.660;2022-08-19T01:40:30;9.97;;;8.23;;
53411;SDS011;39307;52.870;13.660;2022-08-19T01:42:58;9.07;;;7.68;;
53411;SDS011;39307;52.870;13.660;2022-08-19T01:45:26;8.73;;;7.72;;
53411;SDS011;39307;52.870;13.660;2022-08-19T01:47:54;8.82;;;7.00;;
53411;SDS011;39307;52.870;13.660;2022-08-19T01:50:24;9.33;;;7.60;;
53411;SDS011;39307;52.870;13.660;2022-08-19T01:52:50;9.63;;;8.00;;
53411;SDS011;39307;52.870;13.660;2022-08-19T01:55:19;10.80;;;7.80;;
53411;SDS011;39307;52.870;13.660;2022-08-19T01:57:50;9.90;;;7.50;;
53411;SDS011;39307;52.870;13.660;2022-08-19T02:00:20;9.53;;;7.60;;
53411;SDS011;39307;52.870;13.660;2022-08-19T02:02:49;9.05;;;7.60;;
53411;SDS011;39307;52.870;13.660;2022-08-19T02:05:15;9.63;;;8.23;;
53411;SDS011;39307;52.870;13.660;2022-08-19T02:07:43;9.13;;;7.55;;
53411;SDS011;39307;52.870;13.660;2022-08-19T02:10:10;9.57;;;7.90;;
53411;SDS011;39307;52.870;13.660;2022-08-19T02:12:39;8.23;;;6.97;;
53411;SDS011;39307;52.870;13.660;2022-08-19T02:15:06;8.35;;;7.25;;
53411;SDS011;39307;52.870;13.660;2022-08-19T02:17:33;9.02;;;7.75;;
53411;SDS011;39307;52.870;13.660;2022-08-19T02:19:59;8.95;;;7.72;;
53411;SDS011;39307;52.870;13.660;2022-08-19T02:22:28;10.07;;;7.80;;
53411;SDS011;39307;52.870;13.660;2022-08-19T02:24:55;8.00;;;7.15;;
53411;SDS011;39307;52.870;13.660;2022-08-19T02:27:21;9.73;;;7.65;;
53411;SDS011;39307;52.870;13.660;2022-08-19T02:29:49;9.80;;;7.35;;
53411;SDS011;39307;52.870;13.660;2022-08-19T02:32:16;8.93;;;7.28;;
53411;SDS011;39307;52.870;13.660;2022-08-19T02:34:42;8.35;;;7.15;;
53411;SDS011;39307;52.870;13.660;2022-08-19T02:37:09;8.15;;;6.90;;
53411;SDS011;39307;52.870;13.660;2022-08-19T02:39:35;9.38;;;7.05;;
53411;SDS011;39307;52.870;13.660;2022-08-19T02:42:01;9.88;;;7.38;;
53411;SDS011;39307;52.870;13.660;2022-08-19T02:44:28;11.27;;;8.10;;
53411;SDS011;39307;52.870;13.660;2022-08-19T02:46:54;8.70;;;7.43;;
53411;SDS011;39307;52.870;13.660;2022-08-19T02:49:21;9.10;;;7.70;;
53411;SDS011;39307;52.870;13.660;2022-08-19T02:51:47;9.32;;;7.50;;
53411;SDS011;39307;52.870;13.660;2022-08-19T02:54:13;8.52;;;7.28;;
53411;SDS011;39307;52.870;13.660;2022-08-19T02:56:40;9.55;;;6.93;;
53411;SDS011;39307;52.870;13.660;2022-08-19T02:59:08;9.30;;;7.28;;
53411;SDS011;39307;52.870;13.660;2022-08-19T03:01:34;8.48;;;7.15;;
53411;SDS011;39307;52.870;13.660;2022-08-19T03:04:03;8.57;;;6.78;;
53411;SDS011;39307;52.870;13.660;2022-08-19T03:06:31;7.83;;;6.53;;
53411;SDS011;39307;52.870;13.660;2022-08-19T03:09:02;9.17;;;7.47;;
53411;SDS011;39307;52.870;13.660;2022-08-19T03:11:29;8.80;;;7.05;;
53411;SDS011;39307;52.870;13.660;2022-08-19T03:13:57;8.82;;;6.53;;
53411;SDS011;39307;52.870;13.660;2022-08-19T03:16:24;8.88;;;7.13;;
53411;SDS011;39307;52.870;13.660;2022-08-19T03:18:53;8.45;;;7.03;;
53411;SDS011;39307;52.870;13.660;2022-08-19T03:21:23;12.55;;;7.38;;
53411;SDS011;39307;52.870;13.660;2022-08-19T03:23:54;8.43;;;7.00;;
53411;SDS011;39307;52.870;13.660;2022-08-19T03:26:22;11.63;;;6.83;;
53411;SDS011;39307;52.870;13.660;2022-08-19T03:28:49;8.30;;;7.25;;
53411;SDS011;39307;52.870;13.660;2022-08-19T03:31:16;9.57;;;7.40;;
53411;SDS011;39307;52.870;13.660;2022-08-19T03:33:46;8.63;;;7.10;;
53411;SDS011;39307;52.870;13.660;2022-08-19T03:36:14;8.30;;;6.83;;
53411;SDS011;39307;52.870;13.660;2022-08-19T03:38:43;9.32;;;7.30;;
53411;SDS011;39307;52.870;13.660;2022-08-19T03:41:12;9.38;;;7.07;;
53411;SDS011;39307;52.870;13.660;2022-08-19T03:43:49;8.40;;;7.22;;
53411;SDS011;39307;52.870;13.660;2022-08-19T03:46:18;8.70;;;6.97;;
53411;SDS011;39307;52.870;13.660;2022-08-19T03:48:46;8.95;;;7.13;;
53411;SDS011;39307;52.870;13.660;2022-08-19T03:51:18;8.53;;;7.37;;
53411;SDS011;39307;52.870;13.660;2022-08-19T03:53:46;9.60;;;7.50;;
53411;SDS011;39307;52.870;13.660;2022-08-19T03:56:13;8.57;;;7.38;;
53411;SDS011;39307;52.870;13.660;2022-08-19T03:58:40;9.27;;;7.43;;
53411;SDS011;39307;52.870;13.660;2022-08-19T04:01:11;9.40;;;7.57;;
53411;SDS011;39307;52.870;13.660;2022-08-19T04:03:41;9.88;;;7.65;;
53411;SDS011;39307;52.870;13.660;2022-08-19T04:06:16;9.40;;;7.80;;
53411;SDS011;39307;52.870;13.660;2022-08-19T04:08:45;10.20;;;8.00;;
53411;SDS011;39307;52.870;13.660;2022-08-19T04:11:14;8.50;;;7.60;;
53411;SDS011;39307;52.870;13.660;2022-08-19T04:13:43;10.18;;;7.85;;
53411;SDS011;39307;52.870;13.660;2022-08-19T04:16:10;8.55;;;7.18;;
53411;SDS011;39307;52.870;13.660;2022-08-19T04:18:37;8.88;;;7.50;;
53411;SDS011;39307;52.870;13.660;2022-08-19T04:21:05;10.38;;;7.78;;
53411;SDS011;39307;52.870;13.660;2022-08-19T04:23:32;9.05;;;7.85;;
53411;SDS011;39307;52.870;13.660;2022-08-19T04:26:00;9.80;;;7.85;;
53411;SDS011;39307;52.870;13.660;2022-08-19T04:28:27;8.82;;;7.93;;
53411;SDS011;39307;52.870;13.660;2022-08-19T04:30:53;8.63;;;7.47;;
53411;SDS011;39307;52.870;13.660;2022-08-19T04:33:22;10.38;;;8.13;;
53411;SDS011;39307;52.870;13.660;2022-08-19T04:35:51;9.70;;;8.70;;
53411;SDS011;39307;52.870;13.660;2022-08-19T04:38:19;10.35;;;7.72;;
53411;SDS011;39307;52.870;13.660;2022-08-19T04:40:47;9.63;;;8.30;;
53411;SDS011;39307;52.870;13.660;2022-08-19T04:43:16;11.90;;;8.30;;
53411;SDS011;39307;52.870;13.660;2022-08-19T04:45:43;9.90;;;8.18;;
53411;SDS011;39307;52.870;13.660;2022-08-19T04:48:10;12.50;;;9.10;;
53411;SDS011;39307;52.870;13.660;2022-08-19T04:50:39;13.10;;;9.52;;
53411;SDS011;39307;52.870;13.660;2022-08-19T04:53:08;10.75;;;9.38;;
53411;SDS011;39307;52.870;13.660;2022-08-19T04:55:37;12.20;;;9.27;;
53411;SDS011;39307;52.870;13.660;2022-08-19T04:58:06;12.25;;;8.85;;
53411;SDS011;39307;52.870;13.660;2022-08-19T05:00:32;11.40;;;9.05;;
53411;SDS011;39307;52.870;13.660;2022-08-19T05:02:58;10.50;;;8.90;;
53411;SDS011;39307;52.870;13.660;2022-08-19T05:05:24;9.82;;;8.73;;
53411;SDS011;39307;52.870;13.660;2022-08-19T05:07:51;9.90;;;8.88;;
53411;SDS011;39307;52.870;13.660;2022-08-19T05:10:17;11.10;;;9.00;;
53411;SDS011;39307;52.870;13.660;2022-08-19T05:12:43;14.23;;;9.70;;
53411;SDS011;39307;52.870;13.660;2022-08-19T05:15:10;12.15;;;9.07;;
53411;SDS011;39307;52.870;13.660;2022-08-19T05:17:36;11.50;;;9.80;;
53411;SDS011;39307;52.870;13.660;2022-08-19T05:20:03;12.77;;;9.30;;
53411;SDS011;39307;52.870;13.660;2022-08-19T05:22:30;13.52;;;9.68;;
53411;SDS011;39307;52.870;13.660;2022-08-19T05:24:57;11.35;;;9.80;;
53411;SDS011;39307;52.870;13.660;2022-08-19T05:27:23;12.98;;;10.15;;
53411;SDS011;39307;52.870;13.660;2022-08-19T05:29:49;12.32;;;11.02;;
53411;SDS011;39307;52.870;13.660;2022-08-19T05:32:16;12.18;;;10.88;;
53411;SDS011;39307;52.870;13.660;2022-08-19T05:34:42;14.80;;;11.55;;
53411;SDS011;39307;52.870;13.660;2022-08-19T05:37:08;13.68;;;11.35;;
53411;SDS011;39307;52.870;13.660;2022-08-19T05:39:35;14.38;;;12.05;;
53411;SDS011;39307;52.870;13.660;2022-08-19T05:42:05;12.00;;;10.48;;
53411;SDS011;39307;52.870;13.660;2022-08-19T05:44:36;14.25;;;11.98;;
53411;SDS011;39307;52.870;13.660;2022-08-19T05:47:06;13.60;;;12.20;;
53411;SDS011;39307;52.870;13.660;2022-08-19T05:49:33;14.55;;;12.93;;
53411;SDS011;39307;52.870;13.660;2022-08-19T05:52:04;15.85;;;13.23;;
53411;SDS011;39307;52.870;13.660;2022-08-19T05:54:32;15.80;;;13.23;;
53411;SDS011;39307;52.870;13.660;2022-08-19T05:57:00;15.68;;;14.07;;
53411;SDS011;39307;52.870;13.660;2022-08-19T05:59:27;20.17;;;17.42;;
53411;SDS011;39307;52.870;13.660;2022-08-19T06:01:53;17.70;;;15.80;;
53411;SDS011;39307;52.870;13.660;2022-08-19T06:04:21;18.52;;;16.52;;
53411;SDS011;39307;52.870;13.660;2022-08-19T06:06:48;19.88;;;17.77;;
53411;SDS011;39307;52.870;13.660;2022-08-19T06:09:17;18.92;;;16.77;;
53411;SDS011;39307;52.870;13.660;2022-08-19T06:11:48;19.80;;;17.77;;
53411;SDS011;39307;52.870;13.660;2022-08-19T06:14:18;20.50;;;17.90;;
53411;SDS011;39307;52.870;13.660;2022-08-19T06:16:47;20.02;;;17.92;;
53411;SDS011;39307;52.870;13.660;2022-08-19T06:19:15;19.67;;;16.85;;
53411;SDS011;39307;52.870;13.660;2022-08-19T06:21:44;21.10;;;18.80;;
53411;SDS011;39307;52.870;13.660;2022-08-19T06:24:13;21.97;;;19.63;;
53411;SDS011;39307;52.870;13.660;2022-08-19T06:26:42;19.73;;;17.40;;
53411;SDS011;39307;52.870;13.660;2022-08-19T06:29:13;19.17;;;17.17;;
53411;SDS011;39307;52.870;13.660;2022-08-19T06:31:45;19.08;;;17.10;;
53411;SDS011;39307;52.870;13.660;2022-08-19T06:34:14;19.53;;;17.53;;
53411;SDS011;39307;52.870;13.660;2022-08-19T06:36:42;18.50;;;16.60;;
53411;SDS011;39307;52.870;13.660;2022-08-19T06:39:12;18.85;;;16.75;;
53411;SDS011;39307;52.870;13.660;2022-08-19T06:41:44;18.25;;;16.38;;
53411;SDS011;39307;52.870;13.660;2022-08-19T06:44:12;18.73;;;16.40;;
53411;SDS011;39307;52.870;13.660;2022-08-19T06:46:39;18.02;;;15.82;;
53411;SDS011;39307;52.870;13.660;2022-08-19T06:49:07;18.42;;;16.25;;
53411;SDS011;39307;52.870;13.660;2022-08-19T06:51:34;17.07;;;15.37;;
53411;SDS011;39307;52.870;13.660;2022-08-19T06:54:00;18.67;;;16.03;;
53411;SDS011;39307;52.870;13.660;2022-08-19T06:56:28;16.73;;;15.03;;
53411;SDS011;39307;52.870;13.660;2022-08-19T06:58:56;17.55;;;15.30;;
53411;SDS011;39307;52.870;13.660;2022-08-19T07:01:23;17.63;;;15.85;;
53411;SDS011;39307;52.870;13.660;2022-08-19T07:03:49;17.95;;;16.15;;
53411;SDS011;39307;52.870;13.660;2022-08-19T07:06:16;17.95;;;15.32;;
53411;SDS011;39307;52.870;13.660;2022-08-19T07:08:44;17.50;;;15.60;;
53411;SDS011;39307;52.870;13.660;2022-08-19T07:11:11;16.73;;;14.73;;
53411;SDS011;39307;52.870;13.660;2022-08-19T07:13:39;17.10;;;15.27;;
53411;SDS011;39307;52.870;13.660;2022-08-19T07:16:06;17.10;;;14.95;;
53411;SDS011;39307;52.870;13.660;2022-08-19T07:18:34;17.27;;;15.48;;
53411;SDS011;39307;52.870;13.660;2022-08-19T07:21:08;18.17;;;14.63;;
53411;SDS011;39307;52.870;13.660;2022-08-19T07:23:39;15.95;;;13.52;;
53411;SDS011;39307;52.870;13.660;2022-08-19T07:26:11;15.15;;;13.30;;
53411;SDS011;39307;52.870;13.660;2022-08-19T07:28:44;15.30;;;13.68;;
53411;SDS011;39307;52.870;13.660;2022-08-19T07:31:13;16.30;;;14.57;;
53411;SDS011;39307;52.870;13.660;2022-08-19T07:33:40;16.30;;;13.87;;
53411;SDS011;39307;52.870;13.660;2022-08-19T07:36:07;18.00;;;14.38;;
53411;SDS011;39307;52.870;13.660;2022-08-19T07:38:35;17.45;;;13.98;;
53411;SDS011;39307;52.870;13.660;2022-08-19T07:41:01;16.83;;;13.80;;
53411;SDS011;39307;52.870;13.660;2022-08-19T07:43:27;16.10;;;13.47;;
53411;SDS011;39307;52.870;13.660;2022-08-19T07:45:54;15.20;;;13.15;;
53411;SDS011;39307;52.870;13.660;2022-08-19T07:48:21;14.88;;;13.18;;
53411;SDS011;39307;52.870;13.660;2022-08-19T07:50:52;15.90;;;13.82;;
53411;SDS011;39307;52.870;13.660;2022-08-19T07:53:19;16.13;;;13.88;;
53411;SDS011;39307;52.870;13.660;2022-08-19T07:55:50;15.73;;;13.50;;
53411;SDS011;39307;52.870;13.660;2022-08-19T07:58:19;17.08;;;13.40;;
53411;SDS011;39307;52.870;13.660;2022-08-19T08:00:48;15.63;;;13.13;;
53411;SDS011;39307;52.870;13.660;2022-08-19T08:03:16;15.82;;;13.23;;
53411;SDS011;39307;52.870;13.660;2022-08-19T08:05:44;16.23;;;13.07;;
53411;SDS011;39307;52.870;13.660;2022-08-19T08:08:11;15.15;;;13.18;;
53411;SDS011;39307;52.870;13.660;2022-08-19T08:10:38;15.45;;;13.20;;
53411;SDS011;39307;52.870;13.660;2022-08-19T08:13:04;15.48;;;12.85;;
53411;SDS011;39307;52.870;13.660;2022-08-19T08:15:31;18.90;;;13.02;;
53411;SDS011;39307;52.870;13.660;2022-08-19T08:17:57;15.15;;;12.68;;
53411;SDS011;39307;52.870;13.660;2022-08-19T08:20:24;13.88;;;12.48;;
53411;SDS011;39307;52.870;13.660;2022-08-19T08:22:50;14.40;;;12.25;;
53411;SDS011;39307;52.870;13.660;2022-08-19T08:25:19;13.83;;;11.50;;
53411;SDS011;39307;52.870;13.660;2022-08-19T08:27:48;15.10;;;12.85;;
53411;SDS011;39307;52.870;13.660;2022-08-19T08:30:18;17.58;;;13.73;;
53411;SDS011;39307;52.870;13.660;2022-08-19T08:32:46;15.65;;;13.95;;
53411;SDS011;39307;52.870;13.660;2022-08-19T08:35:13;15.55;;;13.57;;
53411;SDS011;39307;52.870;13.660;2022-08-19T08:37:41;14.95;;;11.98;;
53411;SDS011;39307;52.870;13.660;2022-08-19T08:40:28;13.95;;;12.38;;
53411;SDS011;39307;52.870;13.660;2022-08-19T08:43:19;14.07;;;12.23;;
53411;SDS011;39307;52.870;13.660;2022-08-19T08:45:52;13.40;;;12.00;;
53411;SDS011;39307;52.870;13.660;2022-08-19T08:48:36;13.32;;;11.52;;
53411;SDS011;39307;52.870;13.660;2022-08-19T08:51:14;13.93;;;11.60;;
53411;SDS011;39307;52.870;13.660;2022-08-19T08:53:45;12.05;;;10.30;;
53411;SDS011;39307;52.870;13.660;2022-08-19T08:56:15;14.00;;;11.60;;
53411;SDS011;39307;52.870;13.660;2022-08-19T08:58:47;14.02;;;10.68;;
53411;SDS011;39307;52.870;13.660;2022-08-19T09:01:30;12.63;;;10.77;;
53411;SDS011;39307;52.870;13.660;2022-08-19T09:03:57;13.43;;;10.77;;
53411;SDS011;39307;52.870;13.660;2022-08-19T09:12:24;12.20;;;10.33;;
53411;SDS011;39307;52.870;13.660;2022-08-19T09:15:07;12.40;;;9.73;;
53411;SDS011;39307;52.870;13.660;2022-08-19T09:17:37;11.45;;;9.30;;
53411;SDS011;39307;52.870;13.660;2022-08-19T09:22:39;12.07;;;8.88;;
53411;SDS011;39307;52.870;13.660;2022-08-19T09:25:08;10.77;;;8.48;;
53411;SDS011;39307;52.870;13.660;2022-08-19T09:27:36;11.55;;;9.65;;
53411;SDS011;39307;52.870;13.660;2022-08-19T09:30:05;10.55;;;8.60;;
53411;SDS011;39307;52.870;13.660;2022-08-19T09:32:32;12.10;;;8.77;;
53411;SDS011;39307;52.870;13.660;2022-08-19T09:34:59;10.02;;;8.75;;
53411;SDS011;39307;52.870;13.660;2022-08-19T09:37:26;10.77;;;8.50;;
53411;SDS011;39307;52.870;13.660;2022-08-19T09:39:53;10.15;;;8.55;;
53411;SDS011;39307;52.870;13.660;2022-08-19T09:42:19;11.17;;;8.30;;
53411;SDS011;39307;52.870;13.660;2022-08-19T09:44:46;10.15;;;8.55;;
53411;SDS011;39307;52.870;13.660;2022-08-19T09:47:12;9.80;;;7.93;;
53411;SDS011;39307;52.870;13.660;2022-08-19T09:49:39;11.60;;;8.23;;
53411;SDS011;39307;52.870;13.660;2022-08-19T09:52:09;13.48;;;8.60;;
53411;SDS011;39307;52.870;13.660;2022-08-19T09:54:37;10.75;;;7.85;;
53411;SDS011;39307;52.870;13.660;2022-08-19T09:57:04;8.47;;;7.57;;
53411;SDS011;39307;52.870;13.660;2022-08-19T09:59:30;10.57;;;7.82;;
53411;SDS011;39307;52.870;13.660;2022-08-19T10:01:57;9.65;;;7.88;;
53411;SDS011;39307;52.870;13.660;2022-08-19T10:04:23;12.57;;;7.80;;
53411;SDS011;39307;52.870;13.660;2022-08-19T10:06:50;10.73;;;7.85;;
53411;SDS011;39307;52.870;13.660;2022-08-19T10:09:17;9.40;;;7.32;;
53411;SDS011;39307;52.870;13.660;2022-08-19T10:11:44;11.00;;;7.50;;
53411;SDS011;39307;52.870;13.660;2022-08-19T10:14:10;9.75;;;7.45;;
53411;SDS011;39307;52.870;13.660;2022-08-19T10:16:37;10.82;;;8.10;;
53411;SDS011;39307;52.870;13.660;2022-08-19T10:19:03;11.05;;;7.85;;
53411;SDS011;39307;52.870;13.660;2022-08-19T10:21:30;11.15;;;7.95;;
53411;SDS011;39307;52.870;13.660;2022-08-19T10:23:59;11.52;;;7.70;;
53411;SDS011;39307;52.870;13.660;2022-08-19T10:26:29;10.50;;;7.97;;
53411;SDS011;39307;52.870;13.660;2022-08-19T10:28:58;9.93;;;8.05;;
53411;SDS011;39307;52.870;13.660;2022-08-19T10:31:26;11.15;;;8.20;;
53411;SDS011;39307;52.870;13.660;2022-08-19T10:33:54;9.43;;;7.60;;
53411;SDS011;39307;52.870;13.660;2022-08-19T10:36:21;10.73;;;8.17;;
53411;SDS011;39307;52.870;13.660;2022-08-19T10:38:51;10.25;;;7.60;;
53411;SDS011;39307;52.870;13.660;2022-08-19T10:41:20;11.18;;;8.48;;
53411;SDS011;39307;52.870;13.660;2022-08-19T10:43:58;12.05;;;8.35;;
53411;SDS011;39307;52.870;13.660;2022-08-19T10:46:26;11.85;;;8.95;;
53411;SDS011;39307;52.870;13.660;2022-08-19T10:48:53;10.75;;;8.00;;
53411;SDS011;39307;52.870;13.660;2022-08-19T10:51:20;10.73;;;7.55;;
53411;SDS011;39307;52.870;13.660;2022-08-19T10:53:47;11.43;;;8.02;;
53411;SDS011;39307;52.870;13.660;2022-08-19T10:56:13;11.30;;;8.10;;
53411;SDS011;39307;52.870;13.660;2022-08-19T10:58:40;10.88;;;7.90;;
53411;SDS011;39307;52.870;13.660;2022-08-19T11:01:06;11.15;;;8.10;;
53411;SDS011;39307;52.870;13.660;2022-08-19T11:03:32;10.88;;;8.00;;
53411;SDS011;39307;52.870;13.660;2022-08-19T11:06:03;10.02;;;7.88;;
53411;SDS011;39307;52.870;13.660;2022-08-19T11:08:32;11.35;;;8.50;;
53411;SDS011;39307;52.870;13.660;2022-08-19T11:11:00;10.63;;;7.63;;
53411;SDS011;39307;52.870;13.660;2022-08-19T11:13:28;10.13;;;8.43;;
53411;SDS011;39307;52.870;13.660;2022-08-19T11:16:02;11.00;;;8.20;;
53411;SDS011;39307;52.870;13.660;2022-08-19T11:18:31;11.10;;;7.75;;
53411;SDS011;39307;52.870;13.660;2022-08-19T11:21:08;9.73;;;7.75;;
53411;SDS011;39307;52.870;13.660;2022-08-19T11:23:48;10.55;;;8.30;;
53411;SDS011;39307;52.870;13.660;2022-08-19T11:26:15;9.23;;;7.50;;
53411;SDS011;39307;52.870;13.660;2022-08-19T11:28:42;10.00;;;7.88;;
53411;SDS011;39307;52.870;13.660;2022-08-19T11:31:10;9.43;;;7.85;;
53411;SDS011;39307;52.870;13.660;2022-08-19T11:33:41;9.60;;;7.03;;
53411;SDS011;39307;52.870;13.660;2022-08-19T11:36:07;9.80;;;8.02;;
53411;SDS011;39307;52.870;13.660;2022-08-19T11:38:34;12.68;;;8.00;;
53411;SDS011;39307;52.870;13.660;2022-08-19T11:41:03;9.97;;;8.03;;
53411;SDS011;39307;52.870;13.660;2022-08-19T11:43:31;9.98;;;7.80;;
53411;SDS011;39307;52.870;13.660;2022-08-19T11:45:58;8.93;;;7.90;;
53411;SDS011;39307;52.870;13.660;2022-08-19T11:48:25;10.40;;;8.00;;
53411;SDS011;39307;52.870;13.660;2022-08-19T11:50:52;10.80;;;8.32;;
53411;SDS011;39307;52.870;13.660;2022-08-19T11:53:19;11.40;;;8.57;;
53411;SDS011;39307;52.870;13.660;2022-08-19T11:55:46;9.63;;;7.53;;
53411;SDS011;39307;52.870;13.660;2022-08-19T11:58:13;10.50;;;8.40;;
53411;SDS011;39307;52.870;13.660;2022-08-19T12:00:41;10.40;;;7.88;;
53411;SDS011;39307;52.870;13.660;2022-08-19T12:03:08;10.65;;;8.25;;
53411;SDS011;39307;52.870;13.660;2022-08-19T12:05:36;9.25;;;7.80;;
53411;SDS011;39307;52.870;13.660;2022-08-19T12:08:03;9.35;;;7.90;;
53411;SDS011;39307;52.870;13.660;2022-08-19T12:10:30;10.45;;;8.02;;
53411;SDS011;39307;52.870;13.660;2022-08-19T12:12:56;9.13;;;7.65;;
53411;SDS011;39307;52.870;13.660;2022-08-19T12:15:23;9.77;;;7.80;;
53411;SDS011;39307;52.870;13.660;2022-08-19T12:17:49;10.70;;;7.80;;
53411;SDS011;39307;52.870;13.660;2022-08-19T12:20:16;9.65;;;7.55;;
53411;SDS011;39307;52.870;13.660;2022-08-19T12:22:42;9.97;;;7.57;;
53411;SDS011;39307;52.870;13.660;2022-08-19T12:25:09;10.43;;;8.30;;
53411;SDS011;39307;52.870;13.660;2022-08-19T12:27:37;13.38;;;8.98;;
53411;SDS011;39307;52.870;13.660;2022-08-19T12:30:05;10.77;;;9.43;;
53411;SDS011;39307;52.870;13.660;2022-08-19T12:32:33;9.40;;;7.72;;
53411;SDS011;39307;52.870;13.660;2022-08-19T12:34:59;11.27;;;7.70;;
53411;SDS011;39307;52.870;13.660;2022-08-19T12:37:26;8.57;;;7.18;;
53411;SDS011;39307;52.870;13.660;2022-08-19T12:39:52;10.57;;;7.68;;
53411;SDS011;39307;52.870;13.660;2022-08-19T12:42:18;8.85;;;7.63;;
53411;SDS011;39307;52.870;13.660;2022-08-19T12:44:45;9.77;;;7.55;;
53411;SDS011;39307;52.870;13.660;2022-08-19T12:47:11;9.85;;;8.05;;
53411;SDS011;39307;52.870;13.660;2022-08-19T12:49:39;10.18;;;7.45;;
53411;SDS011;39307;52.870;13.660;2022-08-19T12:52:06;9.85;;;7.78;;
53411;SDS011;39307;52.870;13.660;2022-08-19T12:54:34;9.10;;;7.80;;
53411;SDS011;39307;52.870;13.660;2022-08-19T12:57:07;9.93;;;7.65;;
53411;SDS011;39307;52.870;13.660;2022-08-19T12:59:35;9.07;;;7.43;;
53411;SDS011;39307;52.870;13.660;2022-08-19T13:02:02;9.68;;;7.43;;
53411;SDS011;39307;52.870;13.660;2022-08-19T13:04:30;11.57;;;7.90;;
53411;SDS011;39307;52.870;13.660;2022-08-19T13:06:56;9.93;;;7.45;;
53411;SDS011;39307;52.870;13.660;2022-08-19T13:09:22;8.93;;;7.32;;
53411;SDS011;39307;52.870;13.660;2022-08-19T13:11:48;10.68;;;7.65;;
53411;SDS011;39307;52.870;13.660;2022-08-19T13:14:15;9.98;;;8.13;;
53411;SDS011;39307;52.870;13.660;2022-08-19T13:16:41;8.60;;;7.28;;
53411;SDS011;39307;52.870;13.660;2022-08-19T13:19:07;9.85;;;7.50;;
53411;SDS011;39307;52.870;13.660;2022-08-19T13:21:34;10.15;;;7.50;;
53411;SDS011;39307;52.870;13.660;2022-08-19T13:24:00;10.57;;;7.13;;
53411;SDS011;39307;52.870;13.660;2022-08-19T13:26:26;10.95;;;7.60;;
53411;SDS011;39307;52.870;13.660;2022-08-19T13:28:53;9.60;;;7.73;;
53411;SDS011;39307;52.870;13.660;2022-08-19T13:31:20;8.88;;;7.97;;
53411;SDS011;39307;52.870;13.660;2022-08-19T13:33:47;10.55;;;7.95;;
53411;SDS011;39307;52.870;13.660;2022-08-19T13:36:13;11.02;;;8.30;;
53411;SDS011;39307;52.870;13.660;2022-08-19T13:38:39;9.63;;;7.50;;
53411;SDS011;39307;52.870;13.660;2022-08-19T13:41:06;8.80;;;7.55;;
53411;SDS011;39307;52.870;13.660;2022-08-19T13:43:32;9.52;;;8.13;;
53411;SDS011;39307;52.870;13.660;2022-08-19T13:45:58;9.35;;;8.23;;
53411;SDS011;39307;52.870;13.660;2022-08-19T13:48:25;9.40;;;8.05;;
53411;SDS011;39307;52.870;13.660;2022-08-19T13:50:51;9.77;;;8.18;;
53411;SDS011;39307;52.870;13.660;2022-08-19T13:53:18;9.70;;;7.95;;
53411;SDS011;39307;52.870;13.660;2022-08-19T13:55:44;9.93;;;7.90;;
53411;SDS011;39307;52.870;13.660;2022-08-19T13:58:10;8.95;;;7.82;;
53411;SDS011;39307;52.870;13.660;2022-08-19T14:00:41;9.48;;;7.95;;
53411;SDS011;39307;52.870;13.660;2022-08-19T14:03:10;9.57;;;8.27;;
53411;SDS011;39307;52.870;13.660;2022-08-19T14:05:36;9.15;;;7.85;;
53411;SDS011;39307;52.870;13.660;2022-08-19T14:08:03;9.30;;;7.90;;
53411;SDS011;39307;52.870;13.660;2022-08-19T14:10:30;10.38;;;8.65;;
53411;SDS011;39307;52.870;13.660;2022-08-19T14:12:57;10.73;;;8.63;;
53411;SDS011;39307;52.870;13.660;2022-08-19T14:15:26;9.40;;;7.97;;
53411;SDS011;39307;52.870;13.660;2022-08-19T14:17:53;11.80;;;8.63;;
53411;SDS011;39307;52.870;13.660;2022-08-19T14:20:19;13.00;;;8.95;;
53411;SDS011;39307;52.870;13.660;2022-08-19T14:22:47;10.00;;;8.55;;
53411;SDS011;39307;52.870;13.660;2022-08-19T14:25:16;10.20;;;8.60;;
53411;SDS011;39307;52.870;13.660;2022-08-19T14:27:45;10.53;;;8.50;;
53411;SDS011;39307;52.870;13.660;2022-08-19T14:30:14;9.43;;;8.43;;
53411;SDS011;39307;52.870;13.660;2022-08-19T14:32:50;9.98;;;8.30;;
53411;SDS011;39307;52.870;13.660;2022-08-19T14:35:16;11.18;;;8.63;;
53411;SDS011;39307;52.870;13.660;2022-08-19T14:37:43;9.20;;;8.07;;